createdAt,value
2023-04-03T00:02:37.045Z,1.80
2023-04-03T00:07:40.435Z,2.00
2023-04-03T00:12:44.948Z,1.87
2023-04-03T00:17:48.078Z,1.60
2023-04-03T00:22:51.479Z,1.80
2023-04-03T00:27:56.264Z,1.70
2023-04-03T00:32:59.711Z,1.90
2023-04-03T00:38:02.966Z,1.80
2023-04-03T00:43:14.928Z,1.80
2023-04-03T00:48:21.978Z,1.90
2023-04-03T00:53:27.465Z,1.80
2023-04-03T00:58:36.204Z,1.80
2023-04-03T01:03:39.322Z,1.73
2023-04-03T01:08:42.693Z,1.83
2023-04-03T01:13:47.172Z,2.00
2023-04-03T01:18:50.569Z,1.70
2023-04-03T01:24:14.566Z,2.10
2023-04-03T01:29:19.393Z,2.07
2023-04-03T01:34:24.675Z,1.97
2023-04-03T01:39:27.800Z,2.00
2023-04-03T01:44:30.888Z,2.30
2023-04-03T01:49:35.385Z,2.00
2023-04-03T01:54:38.480Z,2.13
2023-04-03T01:59:41.559Z,2.00
2023-04-03T02:04:46.048Z,2.10
2023-04-03T02:09:49.095Z,1.90
2023-04-03T02:14:52.618Z,1.93
2023-04-03T02:19:57.100Z,1.97
2023-04-03T02:25:00.209Z,2.13
2023-04-03T02:30:03.276Z,2.30
2023-04-03T02:35:08.481Z,2.13
2023-04-03T02:40:12.856Z,2.03
2023-04-03T02:45:16.019Z,1.80
2023-04-03T02:50:20.627Z,2.23
2023-04-03T02:55:23.792Z,2.20
2023-04-03T03:00:27.066Z,2.10
2023-04-03T03:05:31.996Z,2.00
2023-04-03T03:10:35.471Z,2.40
2023-04-03T03:15:38.742Z,2.17
2023-04-03T03:20:43.189Z,2.27
2023-04-03T03:25:46.310Z,2.27
2023-04-03T03:30:49.393Z,2.17
2023-04-03T03:35:54.189Z,2.13
2023-04-03T03:40:57.353Z,2.00
2023-04-03T03:46:00.443Z,2.23
2023-04-03T03:51:05.194Z,2.10
2023-04-03T03:56:08.554Z,2.20
2023-04-03T04:01:11.707Z,2.17
2023-04-03T04:06:16.213Z,2.40
2023-04-03T04:11:19.764Z,2.37
2023-04-03T04:16:22.866Z,2.33
2023-04-03T04:21:27.652Z,2.40
2023-04-03T04:26:30.868Z,2.20
2023-04-03T04:31:34.054Z,2.30
2023-04-03T04:36:38.621Z,2.47
2023-04-03T04:41:41.779Z,2.40
2023-04-03T04:46:44.931Z,2.50
2023-04-03T04:51:52.282Z,2.63
2023-04-03T04:56:55.630Z,2.30
2023-04-03T05:01:58.745Z,2.33
2023-04-03T05:07:03.230Z,2.40
2023-04-03T05:12:06.544Z,2.27
2023-04-03T05:17:09.734Z,2.50
2023-04-03T05:22:14.250Z,2.27
2023-04-03T05:27:17.881Z,2.17
2023-04-03T05:32:21.323Z,2.23
2023-04-03T05:37:25.788Z,2.60
2023-04-03T05:42:28.974Z,2.73
2023-04-03T05:47:32.276Z,4.00
2023-04-03T05:52:39.918Z,2.80
2023-04-03T05:57:43.042Z,2.73
2023-04-03T06:02:46.295Z,2.20
2023-04-03T06:07:51.127Z,2.50
2023-04-03T06:12:54.232Z,2.40
2023-04-03T06:17:57.450Z,2.20
2023-04-03T06:23:02.134Z,2.40
2023-04-03T06:28:05.147Z,2.10
2023-04-03T06:33:08.280Z,2.10
2023-04-03T06:38:12.804Z,2.27
2023-04-03T06:43:15.863Z,2.27
2023-04-03T06:48:18.928Z,2.40
2023-04-03T06:53:23.631Z,2.30
2023-04-03T06:58:26.763Z,2.27
2023-04-03T07:03:29.831Z,2.30
2023-04-03T07:08:34.707Z,2.30
2023-04-03T07:13:37.831Z,2.43
2023-04-03T07:18:41.019Z,2.20
2023-04-03T07:23:45.941Z,2.60
2023-04-03T07:28:49.539Z,2.50
2023-04-03T07:33:52.802Z,2.47
2023-04-03T07:38:58.292Z,2.63
2023-04-03T07:44:01.634Z,2.43
2023-04-03T07:49:04.718Z,2.80
2023-04-03T07:54:09.216Z,2.47
2023-04-03T07:59:12.523Z,2.53
2023-04-03T08:04:15.710Z,2.50
2023-04-03T08:09:20.876Z,2.30
2023-04-03T08:14:23.964Z,2.53
2023-04-03T08:19:27.119Z,2.70
2023-04-03T08:24:32.114Z,2.70
2023-04-03T08:29:35.238Z,2.40
2023-04-03T08:34:40.383Z,2.77
2023-04-03T08:39:45.344Z,2.67
2023-04-03T08:44:54.366Z,2.80
2023-04-03T08:50:01.780Z,2.80
2023-04-03T08:55:08.949Z,2.33
2023-04-03T09:00:19.925Z,2.93
2023-04-03T09:05:41.928Z,2.50
2023-04-03T09:10:46.530Z,2.47
2023-04-03T09:15:49.700Z,2.60
2023-04-03T09:21:02.210Z,2.57
2023-04-03T09:26:10.680Z,2.60
2023-04-03T09:31:22.115Z,2.27
2023-04-03T09:36:45.082Z,2.47
2023-04-03T09:42:02.241Z,2.37
2023-04-03T09:47:25.224Z,2.10
2023-04-03T09:52:29.668Z,2.50
2023-04-03T09:57:36.601Z,2.40
2023-04-03T10:02:41.816Z,2.30
2023-04-03T10:07:54.475Z,2.10
2023-04-03T10:13:20.542Z,2.00
2023-04-03T10:18:35.064Z,2.13
2023-04-03T10:23:46.802Z,1.83
2023-04-03T10:28:59.756Z,1.70
2023-04-03T10:34:08.375Z,1.80
2023-04-03T10:39:23.237Z,1.50
2023-04-03T10:44:39.202Z,1.63
2023-04-03T10:49:59.280Z,1.50
2023-04-03T10:55:21.133Z,1.50
2023-04-03T11:00:31.461Z,1.80
2023-04-03T11:05:39.305Z,1.57
2023-04-03T11:10:46.679Z,1.50
2023-04-03T11:15:53.080Z,1.47
2023-04-03T11:21:03.342Z,1.80
2023-04-03T11:26:15.700Z,1.40
2023-04-03T11:31:44.459Z,1.67
2023-04-03T11:36:51.733Z,1.47
2023-04-03T11:42:06.853Z,1.53
2023-04-03T11:47:47.060Z,1.57
2023-04-03T11:53:01.927Z,1.50
2023-04-03T11:58:14.283Z,1.60
2023-04-03T12:03:53.227Z,1.50
2023-04-03T12:08:58.562Z,1.40
2023-04-03T12:14:07.037Z,1.20
2023-04-03T12:19:42.819Z,1.20
2023-04-03T12:24:49.590Z,1.30
2023-04-03T12:30:02.268Z,1.30
2023-04-03T12:35:18.890Z,1.60
2023-04-03T12:40:30.362Z,1.30
2023-04-03T12:45:43.902Z,1.33
2023-04-03T12:50:49.397Z,1.33
2023-04-03T12:55:57.730Z,1.40
2023-04-03T13:01:05.072Z,1.40
2023-04-03T13:06:08.300Z,1.17
2023-04-03T13:11:14.203Z,1.30
2023-04-03T13:16:19.188Z,1.30
2023-04-03T13:21:25.128Z,1.30
2023-04-03T13:26:32.800Z,1.30
2023-04-03T13:31:37.455Z,1.30
2023-04-03T13:36:43.233Z,1.10
2023-04-03T13:41:49.873Z,1.40
2023-04-03T13:46:54.268Z,1.10
2023-04-03T13:52:07.138Z,1.20
2023-04-03T13:57:18.061Z,1.17
2023-04-03T14:02:25.088Z,1.23
2023-04-03T14:07:28.762Z,1.30
2023-04-03T14:12:37.230Z,1.30
2023-04-03T14:17:40.425Z,1.37
2023-04-03T14:22:44.898Z,1.20
2023-04-03T14:27:51.640Z,1.10
2023-04-03T14:32:55.583Z,1.37
2023-04-03T14:37:58.806Z,1.43
2023-04-03T14:43:03.267Z,1.40
2023-04-03T14:48:08.330Z,1.73
2023-04-03T14:53:16.224Z,1.47
2023-04-03T14:58:23.016Z,1.67
2023-04-03T15:03:26.276Z,1.20
2023-04-03T15:08:31.734Z,1.70
2023-04-03T15:13:36.290Z,1.50
2023-04-03T15:18:40.547Z,1.40
2023-04-03T15:23:44.109Z,1.40
2023-04-03T15:28:48.684Z,1.30
2023-04-03T15:33:51.839Z,1.50
2023-04-03T15:38:54.939Z,1.47
2023-04-03T15:43:59.798Z,1.33
2023-04-03T15:49:03.630Z,1.27
2023-04-03T15:54:06.790Z,1.77
2023-04-03T15:59:11.671Z,1.90
2023-04-03T16:04:17.970Z,2.07
2023-04-03T16:09:21.844Z,2.07
2023-04-03T16:14:26.293Z,1.67
2023-04-03T16:19:29.507Z,1.40
2023-04-03T16:24:33.208Z,1.50
2023-04-03T16:29:37.691Z,1.47
2023-04-03T16:34:41.606Z,1.30
2023-04-03T16:39:45.860Z,1.70
2023-04-03T16:44:50.393Z,1.57
2023-04-03T16:49:53.572Z,1.27
2023-04-03T16:54:59.295Z,1.30
2023-04-03T17:00:04.098Z,1.30
2023-04-03T17:05:07.880Z,1.63
2023-04-03T17:10:11.920Z,2.23
2023-04-03T17:15:16.422Z,1.87
2023-04-03T17:20:19.689Z,1.40
2023-04-03T17:25:22.869Z,1.50
2023-04-03T17:30:27.464Z,2.40
2023-04-03T17:35:31.839Z,2.73
2023-04-03T17:40:34.934Z,3.83
2023-04-03T17:45:39.879Z,2.10
2023-04-03T17:50:43.190Z,1.60
2023-04-03T17:55:46.257Z,1.23
2023-04-03T18:00:50.748Z,1.50
2023-04-03T18:05:55.483Z,1.60
2023-04-03T18:10:58.662Z,1.50
2023-04-03T18:16:03.204Z,1.50
2023-04-03T18:21:07.064Z,1.60
2023-04-03T18:26:15.218Z,1.80
2023-04-03T18:31:22.953Z,1.47
2023-04-03T18:36:27.116Z,1.93
2023-04-03T18:41:33.582Z,1.90
2023-04-03T18:46:38.995Z,1.70
2023-04-03T18:51:42.693Z,1.90
2023-04-03T18:56:45.787Z,1.63
2023-04-03T19:01:50.401Z,1.60
2023-04-03T19:06:54.145Z,1.80
2023-04-03T19:11:57.237Z,1.83
2023-04-03T19:17:02.987Z,1.80
2023-04-03T19:22:07.808Z,1.87
2023-04-03T19:27:10.935Z,1.50
2023-04-03T19:32:15.450Z,1.50
2023-04-03T19:37:19.459Z,1.90
2023-04-03T19:42:22.869Z,1.80
2023-04-03T19:47:28.865Z,1.40
2023-04-03T19:52:32.018Z,1.70
2023-04-03T19:57:35.167Z,1.77
2023-04-03T20:02:39.671Z,1.57
2023-04-03T20:07:42.891Z,1.70
2023-04-03T20:12:45.992Z,1.50
2023-04-03T20:17:50.703Z,1.50
2023-04-03T20:22:54.036Z,1.90
2023-04-03T20:27:57.167Z,1.60
2023-04-03T20:33:01.954Z,1.70
2023-04-03T20:38:06.584Z,1.87
2023-04-03T20:43:09.774Z,1.60
2023-04-03T20:48:14.971Z,1.50
2023-04-03T20:53:19.102Z,1.77
2023-04-03T20:58:25.094Z,1.80
2023-04-03T21:03:31.311Z,1.60
2023-04-03T21:09:12.141Z,1.50
2023-04-03T21:14:53.677Z,1.63
2023-04-03T21:19:58.154Z,1.60
2023-04-03T21:25:01.252Z,1.73
2023-04-03T21:30:06.429Z,1.50
2023-04-03T21:35:11.075Z,1.60
2023-04-03T21:40:14.355Z,1.90
2023-04-03T21:45:18.409Z,1.90
2023-04-03T21:50:22.875Z,1.47
2023-04-03T21:55:25.957Z,1.60
2023-04-03T22:00:29.400Z,1.63
2023-04-03T22:05:35.966Z,1.80
2023-04-03T22:10:41.429Z,1.53
2023-04-03T22:15:48.393Z,1.80
2023-04-03T22:20:53.537Z,1.50
2023-04-03T22:26:03.691Z,1.50
2023-04-03T22:31:08.364Z,1.80
2023-04-03T22:36:17.253Z,1.90
2023-04-03T22:41:20.327Z,1.70
2023-04-03T22:46:23.437Z,1.50
2023-04-03T22:51:27.943Z,1.63
2023-04-03T22:56:31.067Z,1.50
2023-04-03T23:01:35.127Z,1.67
2023-04-03T23:06:40.528Z,1.60
2023-04-03T23:11:43.918Z,1.60
2023-04-03T23:16:46.990Z,1.57
2023-04-03T23:21:51.886Z,1.70
2023-04-03T23:26:54.986Z,2.10
2023-04-03T23:31:58.070Z,1.97
2023-04-03T23:37:02.587Z,2.00
2023-04-03T23:42:09.175Z,1.77
2023-04-03T23:47:12.248Z,1.73
2023-04-03T23:52:16.711Z,1.77
2023-04-03T23:57:19.780Z,1.70
